createdAt,value
2022-12-01T00:00:45.658Z,174.60
2022-12-01T00:01:45.691Z,185.69
2022-12-01T00:02:45.612Z,174.60
2022-12-01T00:03:45.446Z,171.69
2022-12-01T00:04:45.381Z,177.30
2022-12-01T00:05:45.316Z,185.89
2022-12-01T00:06:45.250Z,194.89
2022-12-01T00:07:45.244Z,195.39
2022-12-01T00:08:45.116Z,174.10
2022-12-01T00:09:45.046Z,187.89
2022-12-01T00:10:44.976Z,190.60
2022-12-01T00:11:44.905Z,172.10
2022-12-01T00:12:44.865Z,186.00
2022-12-01T00:13:44.769Z,177.19
2022-12-01T00:14:44.704Z,196.69
2022-12-01T00:15:44.639Z,217.50
2022-12-01T00:16:44.868Z,184.30
2022-12-01T00:17:44.512Z,183.80
2022-12-01T00:18:44.450Z,184.00
2022-12-01T00:19:44.387Z,205.89
2022-12-01T00:20:44.325Z,199.00
2022-12-01T00:21:44.255Z,204.39
2022-12-01T00:22:44.187Z,215.19
2022-12-01T00:23:44.121Z,215.80
2022-12-01T00:24:44.053Z,221.80
2022-12-01T00:25:43.985Z,225.19
2022-12-01T00:26:43.921Z,221.50
2022-12-01T00:27:43.864Z,226.39
2022-12-01T00:28:43.830Z,208.00
2022-12-01T00:29:43.740Z,207.80
2022-12-01T00:30:43.672Z,212.89
2022-12-01T00:31:43.680Z,224.60
2022-12-01T00:32:43.538Z,222.00
2022-12-01T00:33:43.466Z,206.39
2022-12-01T00:34:43.398Z,209.00
2022-12-01T00:35:43.326Z,220.60
2022-12-01T00:36:43.259Z,203.89
2022-12-01T00:37:43.185Z,203.89
2022-12-01T00:38:43.110Z,212.69
2022-12-01T00:39:43.040Z,205.50
2022-12-01T00:40:42.974Z,209.80
2022-12-01T00:41:42.905Z,201.39
2022-12-01T00:42:42.836Z,218.39
2022-12-01T00:43:42.766Z,206.30
2022-12-01T00:44:42.724Z,200.19
2022-12-01T00:45:42.658Z,192.10
2022-12-01T00:46:42.554Z,214.69
2022-12-01T00:47:42.485Z,216.10
2022-12-01T00:48:42.415Z,220.50
2022-12-01T00:49:42.350Z,194.10
2022-12-01T00:50:42.285Z,203.10
2022-12-01T00:51:42.219Z,205.30
2022-12-01T00:52:42.153Z,193.89
2022-12-01T00:53:42.086Z,214.30
2022-12-01T00:54:42.016Z,216.89
2022-12-01T00:55:41.949Z,197.50
2022-12-01T00:56:41.884Z,197.30
2022-12-01T00:57:41.816Z,212.39
2022-12-01T00:58:41.756Z,199.19
2022-12-01T00:59:41.694Z,195.80
2022-12-01T01:00:41.661Z,190.89
2022-12-01T01:01:41.649Z,206.00
2022-12-01T01:02:41.552Z,193.50
2022-12-01T01:03:41.443Z,182.00
2022-12-01T01:04:41.382Z,185.00
2022-12-01T01:05:41.320Z,191.00
2022-12-01T01:06:41.251Z,200.89
2022-12-01T01:07:41.289Z,168.60
2022-12-01T01:08:41.113Z,163.50
2022-12-01T01:09:41.046Z,165.50
2022-12-01T01:10:40.976Z,158.60
2022-12-01T01:11:40.908Z,169.30
2022-12-01T01:12:40.841Z,157.19
2022-12-01T01:13:40.771Z,171.19
2022-12-01T01:14:40.702Z,161.80
2022-12-01T01:15:40.635Z,154.10
2022-12-01T01:16:40.670Z,136.00
2022-12-01T01:17:40.501Z,144.50
2022-12-01T01:18:40.436Z,150.30
2022-12-01T01:19:40.365Z,149.80
2022-12-01T01:20:40.309Z,157.80
2022-12-01T01:21:40.233Z,146.30
2022-12-01T01:22:40.165Z,137.69
2022-12-01T01:23:40.100Z,136.10
2022-12-01T01:24:40.032Z,137.19
2022-12-01T01:25:39.962Z,145.00
2022-12-01T01:26:39.898Z,126.80
2022-12-01T01:27:39.843Z,143.10
2022-12-01T01:28:39.779Z,131.19
2022-12-01T01:29:39.715Z,123.09
2022-12-01T01:30:39.722Z,126.90
2022-12-01T01:31:39.585Z,126.90
2022-12-01T01:32:39.542Z,125.69
2022-12-01T01:33:39.469Z,124.40
2022-12-01T01:34:39.390Z,116.69
2022-12-01T01:35:39.324Z,114.19
2022-12-01T01:36:39.262Z,117.90
2022-12-01T01:37:39.211Z,112.30
2022-12-01T01:38:39.146Z,116.40
2022-12-01T01:39:39.085Z,111.90
2022-12-01T01:40:39.027Z,115.19
2022-12-01T01:41:38.963Z,128.50
2022-12-01T01:42:38.900Z,114.59
2022-12-01T01:43:38.835Z,120.59
2022-12-01T01:44:38.768Z,115.90
2022-12-01T01:45:38.760Z,127.19
2022-12-01T01:46:38.646Z,131.10
2022-12-01T01:47:38.580Z,117.90
2022-12-01T01:48:38.536Z,129.00
2022-12-01T01:49:38.452Z,116.69
2022-12-01T01:50:38.387Z,125.59
2022-12-01T01:51:38.337Z,136.69
2022-12-01T01:52:38.265Z,126.40
2022-12-01T01:53:38.201Z,125.80
2022-12-01T01:54:38.136Z,134.69
2022-12-01T01:55:38.075Z,134.80
2022-12-01T01:56:38.011Z,132.19
2022-12-01T01:57:37.952Z,137.60
2022-12-01T01:58:37.892Z,146.80
2022-12-01T01:59:37.827Z,148.50
2022-12-01T02:00:37.769Z,142.69
2022-12-01T02:01:37.736Z,146.39
2022-12-01T02:02:37.677Z,143.39
2022-12-01T02:03:37.574Z,156.10
2022-12-01T02:04:37.537Z,153.39
2022-12-01T02:05:37.449Z,163.60
2022-12-01T02:06:37.385Z,146.60
2022-12-01T02:07:37.363Z,149.69
2022-12-01T02:08:37.264Z,142.00
2022-12-01T02:09:37.198Z,146.30
2022-12-01T02:10:37.140Z,167.89
2022-12-01T02:11:37.083Z,146.89
2022-12-01T02:12:37.023Z,148.50
2022-12-01T02:13:36.959Z,153.50
2022-12-01T02:14:36.902Z,138.80
2022-12-01T02:15:36.838Z,137.60
2022-12-01T02:16:36.845Z,137.39
2022-12-01T02:17:41.582Z,137.19
2022-12-01T02:18:36.661Z,133.69
2022-12-01T02:19:36.601Z,146.39
2022-12-01T02:20:36.573Z,138.00
2022-12-01T02:21:36.488Z,122.50
2022-12-01T02:22:36.425Z,120.19
2022-12-01T02:23:36.367Z,124.19
2022-12-01T02:24:36.308Z,121.40
2022-12-01T02:25:36.254Z,109.69
2022-12-01T02:26:36.199Z,108.30
2022-12-01T02:27:36.134Z,107.80
2022-12-01T02:28:36.075Z,107.90
2022-12-01T02:29:36.018Z,114.40
2022-12-01T02:30:36.013Z,92.80
2022-12-01T02:31:35.892Z,94.69
2022-12-01T02:32:35.826Z,103.69
2022-12-01T02:33:35.763Z,92.50
2022-12-01T02:34:35.704Z,94.09
2022-12-01T02:35:35.651Z,89.09
2022-12-01T02:36:35.605Z,91.80
2022-12-01T02:37:35.520Z,86.90
2022-12-01T02:38:35.451Z,90.80
2022-12-01T02:39:35.383Z,85.19
2022-12-01T02:40:35.314Z,85.00
2022-12-01T02:41:35.252Z,80.19
2022-12-01T02:42:35.188Z,82.50
2022-12-01T02:43:35.126Z,81.09
2022-12-01T02:44:35.061Z,87.59
2022-12-01T02:45:34.994Z,77.90
2022-12-01T02:46:35.005Z,75.00
2022-12-01T02:47:34.857Z,72.00
2022-12-01T02:48:34.785Z,77.69
2022-12-01T02:49:34.722Z,81.80
2022-12-01T02:50:34.659Z,82.30
2022-12-01T02:51:34.589Z,82.09
2022-12-01T02:52:34.550Z,82.80
2022-12-01T02:53:34.464Z,81.00
2022-12-01T02:54:34.394Z,82.19
2022-12-01T02:55:34.328Z,76.80
2022-12-01T02:56:34.262Z,78.19
2022-12-01T02:57:34.192Z,77.00
2022-12-01T02:58:34.129Z,83.50
2022-12-01T02:59:34.064Z,76.80
2022-12-01T03:00:34.001Z,72.40
2022-12-01T03:01:34.064Z,82.80
2022-12-01T03:02:33.937Z,83.00
2022-12-01T03:03:33.820Z,79.59
2022-12-01T03:04:33.755Z,80.30
2022-12-01T03:05:33.691Z,88.00
2022-12-01T03:06:33.631Z,85.50
2022-12-01T03:07:33.609Z,85.09
2022-12-01T03:08:33.536Z,79.30
2022-12-01T03:09:33.447Z,83.30
2022-12-01T03:10:33.379Z,78.69
2022-12-01T03:11:33.317Z,79.80
2022-12-01T03:12:33.257Z,79.30
2022-12-01T03:13:33.195Z,84.50
2022-12-01T03:14:33.138Z,83.09
2022-12-01T03:15:33.075Z,80.00
2022-12-01T03:16:33.046Z,92.00
2022-12-01T03:17:32.947Z,93.69
2022-12-01T03:18:32.884Z,87.80
2022-12-01T03:19:32.819Z,82.69
2022-12-01T03:20:32.762Z,91.40
2022-12-01T03:21:32.698Z,89.80
2022-12-01T03:22:32.636Z,97.90
2022-12-01T03:23:32.573Z,90.40
2022-12-01T03:24:32.569Z,91.19
2022-12-01T03:25:32.456Z,90.59
2022-12-01T03:26:32.401Z,91.00
2022-12-01T03:27:32.332Z,90.40
2022-12-01T03:28:32.282Z,87.09
2022-12-01T03:29:32.217Z,87.90
2022-12-01T03:30:32.174Z,96.30
2022-12-01T03:31:32.203Z,99.90
2022-12-01T03:32:32.043Z,94.40
2022-12-01T03:33:31.986Z,85.59
2022-12-01T03:34:31.928Z,99.90
2022-12-01T03:35:31.857Z,95.09
2022-12-01T03:36:31.796Z,102.59
2022-12-01T03:37:31.734Z,103.30
2022-12-01T03:38:31.668Z,100.30
2022-12-01T03:39:31.604Z,100.40
2022-12-01T03:40:31.572Z,103.80
2022-12-01T03:41:31.475Z,110.19
2022-12-01T03:42:31.411Z,107.40
2022-12-01T03:43:31.342Z,103.50
2022-12-01T03:44:31.275Z,104.50
2022-12-01T03:45:31.212Z,105.00
2022-12-01T03:46:31.174Z,100.90
2022-12-01T03:47:31.080Z,105.59
2022-12-01T03:48:31.012Z,98.00
2022-12-01T03:49:30.943Z,112.59
2022-12-01T03:50:30.879Z,101.80
2022-12-01T03:51:30.815Z,116.00
2022-12-01T03:52:30.749Z,115.40
2022-12-01T03:53:30.693Z,116.30
2022-12-01T03:54:30.624Z,119.90
2022-12-01T03:55:30.555Z,113.09
2022-12-01T03:56:30.530Z,112.90
2022-12-01T03:57:30.429Z,118.50
2022-12-01T03:58:30.366Z,113.30
2022-12-01T03:59:30.300Z,117.00
2022-12-01T04:00:30.241Z,118.69
2022-12-01T04:01:30.249Z,113.09
2022-12-01T04:02:30.180Z,110.50
2022-12-01T04:03:30.070Z,118.90
2022-12-01T04:04:30.011Z,114.80
2022-12-01T04:05:29.949Z,115.59
2022-12-01T04:06:29.887Z,119.00
2022-12-01T04:07:29.868Z,120.80
2022-12-01T04:08:29.753Z,122.19
2022-12-01T04:09:29.691Z,117.19
2022-12-01T04:10:29.626Z,116.19
2022-12-01T04:11:32.677Z,118.19
2022-12-01T04:12:29.518Z,124.90
2022-12-01T04:13:29.429Z,121.90
2022-12-01T04:14:29.365Z,125.59
2022-12-01T04:15:29.305Z,127.90
2022-12-01T04:16:29.357Z,124.80
2022-12-01T04:17:29.179Z,128.19
2022-12-01T04:18:29.113Z,125.09
2022-12-01T04:19:29.048Z,129.10
2022-12-01T04:20:28.989Z,144.69
2022-12-01T04:21:28.920Z,130.80
2022-12-01T04:22:28.856Z,135.60
2022-12-01T04:23:28.795Z,138.10
2022-12-01T04:24:28.734Z,148.00
2022-12-01T04:25:28.675Z,145.89
2022-12-01T04:26:28.617Z,140.89
2022-12-01T04:27:28.568Z,148.19
2022-12-01T04:28:28.531Z,143.69
2022-12-01T04:29:28.442Z,146.60
2022-12-01T04:30:28.394Z,152.19
2022-12-01T04:31:28.420Z,159.19
2022-12-01T04:32:28.254Z,148.69
2022-12-01T04:33:28.192Z,160.19
2022-12-01T04:34:28.132Z,157.10
2022-12-01T04:35:28.068Z,165.60
2022-12-01T04:36:28.006Z,168.80
2022-12-01T04:37:27.945Z,170.89
2022-12-01T04:38:30.779Z,163.00
2022-12-01T04:39:27.827Z,171.80
2022-12-01T04:40:27.767Z,171.80
2022-12-01T04:41:27.709Z,166.39
2022-12-01T04:42:27.646Z,168.80
2022-12-01T04:43:27.592Z,319.00
2022-12-01T04:44:33.007Z,175.39
2022-12-01T04:45:28.486Z,173.30
2022-12-01T04:46:27.467Z,193.10
2022-12-01T04:47:27.355Z,175.19
2022-12-01T04:48:27.292Z,174.39
2022-12-01T04:49:27.236Z,176.89
2022-12-01T04:50:27.182Z,183.10
2022-12-01T04:51:27.113Z,179.50
2022-12-01T04:52:32.050Z,189.89
2022-12-01T04:53:28.008Z,239.19
2022-12-01T04:54:26.938Z,197.80
2022-12-01T04:55:26.877Z,191.10
2022-12-01T04:56:26.814Z,187.10
2022-12-01T04:57:26.753Z,178.69
2022-12-01T04:58:26.691Z,187.10
2022-12-01T04:59:26.628Z,190.60
2022-12-01T05:00:26.665Z,202.30
2022-12-01T05:01:26.644Z,197.30
2022-12-01T05:02:26.553Z,208.19
2022-12-01T05:03:26.393Z,206.10
2022-12-01T05:04:26.326Z,199.60
2022-12-01T05:05:26.265Z,207.30
2022-12-01T05:06:26.200Z,210.39
2022-12-01T05:07:26.218Z,191.19
2022-12-01T05:08:26.074Z,222.50
2022-12-01T05:09:26.020Z,208.30
2022-12-01T05:10:25.960Z,212.69
2022-12-01T05:11:25.895Z,213.10
2022-12-01T05:12:25.835Z,207.60
2022-12-01T05:13:25.758Z,216.19
2022-12-01T05:14:25.697Z,220.10
2022-12-01T05:15:25.636Z,232.10
2022-12-01T05:16:25.739Z,230.69
2022-12-01T05:17:25.506Z,227.60
2022-12-01T05:18:25.522Z,226.39
2022-12-01T05:19:25.377Z,229.80
2022-12-01T05:20:25.319Z,242.80
2022-12-01T05:21:25.265Z,232.69
2022-12-01T05:22:56.875Z,227.30
2022-12-01T05:23:26.158Z,231.19
2022-12-01T05:24:25.085Z,223.30
2022-12-01T05:25:25.029Z,236.60
2022-12-01T05:26:24.975Z,232.19
2022-12-01T05:27:24.923Z,242.30
2022-12-01T05:28:24.866Z,501.70
2022-12-01T05:29:24.808Z,628.90
2022-12-01T05:30:28.547Z,256.79
2022-12-01T05:31:24.736Z,284.20
2022-12-01T05:32:24.669Z,245.30
2022-12-01T05:33:24.580Z,538.09
2022-12-01T05:34:24.525Z,257.10
2022-12-01T05:35:24.471Z,244.69
2022-12-01T05:36:24.412Z,260.20
2022-12-01T05:37:24.356Z,256.79
2022-12-01T05:38:24.301Z,253.39
2022-12-01T05:39:24.251Z,252.00
2022-12-01T05:40:24.194Z,272.39
2022-12-01T05:41:24.134Z,250.80
2022-12-01T05:42:24.079Z,258.00
2022-12-01T05:43:29.083Z,254.50
2022-12-01T05:44:23.974Z,257.00
2022-12-01T05:45:23.929Z,248.89
2022-12-01T05:46:23.958Z,275.10
2022-12-01T05:47:23.821Z,236.89
2022-12-01T05:48:23.806Z,329.10
2022-12-01T05:49:23.724Z,248.39
2022-12-01T05:50:23.664Z,243.00
2022-12-01T05:51:23.611Z,253.39
2022-12-01T05:52:23.555Z,235.69
2022-12-01T05:53:23.505Z,239.00
2022-12-01T05:54:23.445Z,234.00
2022-12-01T05:55:23.390Z,226.89
2022-12-01T05:56:23.342Z,236.10
2022-12-01T05:57:23.285Z,228.39
2022-12-01T05:58:23.232Z,253.10
2022-12-01T05:59:23.181Z,248.60
2022-12-01T06:00:23.121Z,258.50
2022-12-01T06:01:23.075Z,269.20
2022-12-01T06:02:23.057Z,276.20
2022-12-01T06:03:22.952Z,264.60
2022-12-01T06:04:22.965Z,253.00
2022-12-01T06:05:22.840Z,260.29
2022-12-01T06:06:22.788Z,247.00
2022-12-01T06:07:22.749Z,248.60
2022-12-01T06:08:22.673Z,248.10
2022-12-01T06:09:22.624Z,249.00
2022-12-01T06:10:22.571Z,281.00
2022-12-01T06:11:22.517Z,233.00
2022-12-01T06:12:22.464Z,228.89
2022-12-01T06:13:22.411Z,248.39
2022-12-01T06:14:22.352Z,246.19
2022-12-01T06:15:22.291Z,435.20
2022-12-01T06:16:22.304Z,245.50
2022-12-01T06:17:22.171Z,237.10
2022-12-01T06:18:22.113Z,241.39
2022-12-01T06:19:22.056Z,230.50
2022-12-01T06:20:22.024Z,227.39
2022-12-01T06:21:21.932Z,239.19
2022-12-01T06:22:21.873Z,229.89
2022-12-01T06:23:25.210Z,225.19
2022-12-01T06:24:21.771Z,228.39
2022-12-01T06:25:21.719Z,222.39
2022-12-01T06:26:21.664Z,214.89
2022-12-01T06:27:21.604Z,224.69
2022-12-01T06:28:21.547Z,217.89
2022-12-01T06:29:21.492Z,221.00
2022-12-01T06:30:21.434Z,202.89
2022-12-01T06:31:21.442Z,197.00
2022-12-01T06:32:21.325Z,208.00
2022-12-01T06:33:21.267Z,199.60
2022-12-01T06:34:21.205Z,202.80
2022-12-01T06:35:21.152Z,203.60
2022-12-01T06:36:21.124Z,182.30
2022-12-01T06:37:21.070Z,174.10
2022-12-01T06:38:20.996Z,170.60
2022-12-01T06:39:20.941Z,159.89
2022-12-01T06:40:20.886Z,154.50
2022-12-01T06:41:20.832Z,158.00
2022-12-01T06:42:20.783Z,126.40
2022-12-01T06:43:20.723Z,152.10
2022-12-01T06:44:20.673Z,142.30
2022-12-01T06:45:20.615Z,145.60
2022-12-01T06:46:20.588Z,119.90
2022-12-01T06:47:20.506Z,136.80
2022-12-01T06:48:20.467Z,117.69
2022-12-01T06:49:20.394Z,133.19
2022-12-01T06:50:20.339Z,127.69
2022-12-01T06:51:20.297Z,114.90
2022-12-01T06:52:20.254Z,117.80
2022-12-01T06:53:20.176Z,105.09
2022-12-01T06:54:20.121Z,110.19
2022-12-01T06:55:20.064Z,99.09
2022-12-01T06:56:20.002Z,105.19
2022-12-01T06:57:19.952Z,101.69
2022-12-01T06:58:19.895Z,88.69
2022-12-01T06:59:19.854Z,98.00
2022-12-01T07:00:19.794Z,90.40
2022-12-01T07:01:19.822Z,86.69
2022-12-01T07:02:19.736Z,90.19
2022-12-01T07:03:19.642Z,90.09
2022-12-01T07:04:19.584Z,84.00
2022-12-01T07:05:19.532Z,73.59
2022-12-01T07:06:19.472Z,80.30
2022-12-01T07:07:19.598Z,82.80
2022-12-01T07:08:19.388Z,73.30
2022-12-01T07:09:19.305Z,68.09
2022-12-01T07:10:19.250Z,70.59
2022-12-01T07:11:19.199Z,75.59
2022-12-01T07:12:19.148Z,70.30
2022-12-01T07:13:19.107Z,68.09
2022-12-01T07:14:19.036Z,72.00
2022-12-01T07:15:18.976Z,66.09
2022-12-01T07:16:18.975Z,66.09
2022-12-01T07:17:18.857Z,58.50
2022-12-01T07:18:18.802Z,69.50
2022-12-01T07:19:18.744Z,68.00
2022-12-01T07:20:18.686Z,68.80
2022-12-01T07:21:18.624Z,61.50
2022-12-01T07:22:18.570Z,64.80
2022-12-01T07:23:18.506Z,61.90
2022-12-01T07:24:18.559Z,66.59
2022-12-01T07:25:18.383Z,68.09
2022-12-01T07:26:18.322Z,65.19
2022-12-01T07:27:18.264Z,71.90
2022-12-01T07:28:18.197Z,65.30
2022-12-01T07:29:18.136Z,64.50
2022-12-01T07:30:18.072Z,74.19
2022-12-01T07:31:18.143Z,70.00
2022-12-01T07:32:17.952Z,65.40
2022-12-01T07:33:17.890Z,65.40
2022-12-01T07:34:17.830Z,66.09
2022-12-01T07:35:17.778Z,67.00
2022-12-01T07:36:17.716Z,64.30
2022-12-01T07:37:17.654Z,67.50
2022-12-01T07:38:21.896Z,68.80
2022-12-01T07:39:17.535Z,66.90
2022-12-01T07:40:17.502Z,66.19
2022-12-01T07:41:17.418Z,64.19
2022-12-01T07:42:17.359Z,75.40
2022-12-01T07:43:17.304Z,75.30
2022-12-01T07:44:17.241Z,65.40
2022-12-01T07:45:17.182Z,62.40
2022-12-01T07:46:22.252Z,61.59
2022-12-01T07:47:17.057Z,67.90
2022-12-01T07:48:16.997Z,63.70
2022-12-01T07:49:16.940Z,66.50
2022-12-01T07:50:16.884Z,70.30
2022-12-01T07:51:16.866Z,64.80
2022-12-01T07:52:16.762Z,61.40
2022-12-01T07:53:16.705Z,70.90
2022-12-01T07:54:16.646Z,59.40
2022-12-01T07:55:16.595Z,58.59
2022-12-01T07:56:16.567Z,60.29
2022-12-01T07:57:16.481Z,63.29
2022-12-01T07:58:16.425Z,64.00
2022-12-01T07:59:16.368Z,59.29
2022-12-01T08:00:16.308Z,54.59
2022-12-01T08:01:16.355Z,61.09
2022-12-01T08:02:16.352Z,53.70
2022-12-01T08:03:16.294Z,56.00
2022-12-01T08:04:16.067Z,55.79
2022-12-01T08:05:16.012Z,56.70
2022-12-01T08:06:15.944Z,58.00
2022-12-01T08:07:15.881Z,55.20
2022-12-01T08:08:15.924Z,54.09
2022-12-01T08:09:15.760Z,55.50
2022-12-01T08:10:15.700Z,50.00
2022-12-01T08:11:15.642Z,49.40
2022-12-01T08:12:15.605Z,51.29
2022-12-01T08:13:17.467Z,51.20
2022-12-01T08:14:15.465Z,55.09
2022-12-01T08:15:15.404Z,52.50
2022-12-01T08:16:15.403Z,56.50
2022-12-01T08:17:15.282Z,51.90
2022-12-01T08:18:15.220Z,53.50
2022-12-01T08:19:15.163Z,53.90
2022-12-01T08:20:18.487Z,52.20
2022-12-01T08:21:16.058Z,53.50
2022-12-01T08:22:14.979Z,54.50
2022-12-01T08:23:14.921Z,53.90
2022-12-01T08:24:14.862Z,59.59
2022-12-01T08:25:14.796Z,50.29
2022-12-01T08:26:14.736Z,52.00
2022-12-01T08:27:14.677Z,53.29
2022-12-01T08:28:14.638Z,52.90
2022-12-01T08:29:19.763Z,55.20
2022-12-01T08:30:14.485Z,53.59
2022-12-01T08:31:14.500Z,55.79
2022-12-01T08:32:14.366Z,59.50
2022-12-01T08:33:14.309Z,57.79
2022-12-01T08:34:14.250Z,55.20
2022-12-01T08:35:14.214Z,53.40
2022-12-01T08:36:14.132Z,50.40
2022-12-01T08:37:14.060Z,56.20
2022-12-01T08:38:13.991Z,56.00
2022-12-01T08:39:13.924Z,62.50
2022-12-01T08:40:13.878Z,60.70
2022-12-01T08:41:13.795Z,57.29
2022-12-01T08:42:13.724Z,59.20
2022-12-01T08:43:41.474Z,63.09
2022-12-01T08:44:14.666Z,64.09
2022-12-01T08:45:13.536Z,60.20
2022-12-01T08:46:13.575Z,69.90
2022-12-01T08:47:17.246Z,70.09
2022-12-01T08:48:13.357Z,68.19
2022-12-01T08:49:13.294Z,72.09
2022-12-01T08:50:13.231Z,79.09
2022-12-01T08:51:13.171Z,79.00
2022-12-01T08:52:13.106Z,80.00
2022-12-01T08:53:13.041Z,83.59
2022-12-01T08:54:12.977Z,78.90
2022-12-01T08:55:12.913Z,80.59
2022-12-01T08:56:12.851Z,82.30
2022-12-01T08:57:12.789Z,83.80
2022-12-01T08:58:12.723Z,83.30
2022-12-01T08:59:12.662Z,84.00
2022-12-01T09:00:12.625Z,80.80
2022-12-01T09:01:12.816Z,80.00
2022-12-01T09:02:12.531Z,84.09
2022-12-01T09:03:12.504Z,79.90
2022-12-01T09:04:12.342Z,89.69
2022-12-01T09:05:12.273Z,87.40
2022-12-01T09:06:12.206Z,85.09
2022-12-01T09:07:12.142Z,86.59
2022-12-01T09:08:12.149Z,87.59
2022-12-01T09:09:12.017Z,80.30
2022-12-01T09:10:11.951Z,78.59
2022-12-01T09:11:11.889Z,76.30
2022-12-01T09:12:11.815Z,78.00
2022-12-01T09:13:11.748Z,78.40
2022-12-01T09:14:11.682Z,80.59
2022-12-01T09:15:11.617Z,83.50
2022-12-01T09:16:11.649Z,83.59
2022-12-01T09:17:11.488Z,82.59
2022-12-01T09:18:11.416Z,79.30
2022-12-01T09:19:13.180Z,76.30
2022-12-01T09:20:11.277Z,80.50
2022-12-01T09:21:11.202Z,81.50
2022-12-01T09:22:11.137Z,71.09
2022-12-01T09:23:11.062Z,77.09
2022-12-01T09:24:10.991Z,77.30
2022-12-01T09:25:10.922Z,84.09
2022-12-01T09:26:13.577Z,82.59
2022-12-01T09:27:10.779Z,86.50
2022-12-01T09:28:10.701Z,86.40
2022-12-01T09:29:10.630Z,84.90
2022-12-01T09:30:10.548Z,88.59
2022-12-01T09:31:10.550Z,84.80
2022-12-01T09:32:10.428Z,81.80
2022-12-01T09:33:10.333Z,88.40
2022-12-01T09:34:10.259Z,81.69
2022-12-01T09:35:10.182Z,78.90
2022-12-01T09:36:10.109Z,74.59
2022-12-01T09:37:10.037Z,88.50
2022-12-01T09:38:09.962Z,85.90
2022-12-01T09:39:09.896Z,88.00
2022-12-01T09:40:09.823Z,83.09
2022-12-01T09:41:09.749Z,88.90
2022-12-01T09:42:09.679Z,91.50
2022-12-01T09:43:09.602Z,90.09
2022-12-01T09:44:09.523Z,89.40
2022-12-01T09:45:09.458Z,85.69
2022-12-01T09:46:09.374Z,81.90
2022-12-01T09:47:09.357Z,84.80
2022-12-01T09:48:09.244Z,88.90
2022-12-01T09:49:09.136Z,88.50
2022-12-01T09:50:09.066Z,90.59
2022-12-01T09:51:08.990Z,90.69
2022-12-01T09:52:08.916Z,98.50
2022-12-01T09:53:08.841Z,93.09
2022-12-01T09:54:08.773Z,90.30
2022-12-01T09:55:08.700Z,107.80
2022-12-01T09:56:12.795Z,90.80
2022-12-01T09:57:08.562Z,97.30
2022-12-01T09:58:08.498Z,97.90
2022-12-01T09:59:08.435Z,97.00
2022-12-01T10:00:08.372Z,99.80
2022-12-01T10:01:08.350Z,97.50
2022-12-01T10:02:08.307Z,92.19
2022-12-01T10:03:08.162Z,91.40
2022-12-01T10:04:08.119Z,96.90
2022-12-01T10:05:08.070Z,94.50
2022-12-01T10:06:26.570Z,96.09
2022-12-01T10:07:08.904Z,97.59
2022-12-01T10:08:07.896Z,98.69
2022-12-01T10:09:07.764Z,103.30
2022-12-01T10:10:07.691Z,103.50
2022-12-01T10:11:07.625Z,106.19
2022-12-01T10:12:07.561Z,107.80
2022-12-01T10:13:07.497Z,107.09
2022-12-01T10:14:07.434Z,107.50
2022-12-01T10:15:07.364Z,111.80
2022-12-01T10:16:07.335Z,113.40
2022-12-01T10:17:07.241Z,112.69
2022-12-01T10:18:07.164Z,114.69
2022-12-01T10:19:07.091Z,110.40
2022-12-01T10:20:07.047Z,113.69
2022-12-01T10:21:06.951Z,110.40
2022-12-01T10:22:06.881Z,108.50
2022-12-01T10:23:06.810Z,110.50
2022-12-01T10:24:06.739Z,111.80
2022-12-01T10:25:06.670Z,112.00
2022-12-01T10:26:06.597Z,115.50
2022-12-01T10:27:06.525Z,111.80
2022-12-01T10:28:06.455Z,111.30
2022-12-01T10:29:06.382Z,106.19
2022-12-01T10:30:06.311Z,103.19
2022-12-01T10:31:06.320Z,104.69
2022-12-01T10:32:06.168Z,103.00
2022-12-01T10:33:06.089Z,111.40
2022-12-01T10:34:06.030Z,110.50
2022-12-01T10:35:05.947Z,105.59
2022-12-01T10:36:05.904Z,109.19
2022-12-01T10:37:05.807Z,105.50
2022-12-01T10:38:05.779Z,105.00
2022-12-01T10:39:05.664Z,106.00
2022-12-01T10:40:05.585Z,103.30
2022-12-01T10:41:05.508Z,109.59
2022-12-01T10:42:05.427Z,108.30
2022-12-01T10:43:05.352Z,104.90
2022-12-01T10:44:05.280Z,97.59
2022-12-01T10:45:05.207Z,103.40
2022-12-01T10:46:05.257Z,107.80
2022-12-01T10:47:05.061Z,104.50
2022-12-01T10:48:04.988Z,105.30
2022-12-01T10:49:04.916Z,111.00
2022-12-01T10:50:04.837Z,101.69
2022-12-01T10:51:04.761Z,103.90
2022-12-01T10:52:04.713Z,105.00
2022-12-01T10:53:04.607Z,99.69
2022-12-01T10:54:04.536Z,107.80
2022-12-01T10:55:04.471Z,99.30
2022-12-01T10:56:04.385Z,105.59
2022-12-01T10:57:04.311Z,102.00
2022-12-01T10:58:09.058Z,96.40
2022-12-01T10:59:04.151Z,104.00
2022-12-01T11:00:04.090Z,101.40
2022-12-01T11:01:04.127Z,105.30
2022-12-01T11:02:04.073Z,101.09
2022-12-01T11:03:04.046Z,103.40
2022-12-01T11:04:03.751Z,103.30
2022-12-01T11:05:03.671Z,97.69
2022-12-01T11:06:03.588Z,96.09
2022-12-01T11:07:03.505Z,98.09
2022-12-01T11:08:03.513Z,90.90
2022-12-01T11:09:03.351Z,92.40
2022-12-01T11:10:03.271Z,92.90
2022-12-01T11:11:03.188Z,98.90
2022-12-01T11:12:03.107Z,92.69
2022-12-01T11:13:03.022Z,89.00
2022-12-01T11:14:02.942Z,88.19
2022-12-01T11:15:02.859Z,92.50
2022-12-01T11:16:02.816Z,87.90
2022-12-01T11:17:02.759Z,84.40
2022-12-01T11:18:02.622Z,90.90
2022-12-01T11:19:02.575Z,84.90
2022-12-01T11:20:02.502Z,80.80
2022-12-01T11:21:02.347Z,88.19
2022-12-01T11:22:02.265Z,89.40
2022-12-01T11:23:02.181Z,88.59
2022-12-01T11:24:02.121Z,86.69
2022-12-01T11:25:02.016Z,86.19
2022-12-01T11:26:01.925Z,87.50
2022-12-01T11:27:01.839Z,88.19
2022-12-01T11:28:01.753Z,88.50
2022-12-01T11:29:01.667Z,82.69
2022-12-01T11:30:01.634Z,80.30
2022-12-01T11:31:01.505Z,86.19
2022-12-01T11:32:01.473Z,83.69
2022-12-01T11:33:01.338Z,94.50
2022-12-01T11:34:01.256Z,91.19
2022-12-01T11:35:01.171Z,89.19
2022-12-01T11:36:01.101Z,92.19
2022-12-01T11:37:01.016Z,89.19
2022-12-01T11:38:28.358Z,94.69
2022-12-01T11:39:01.862Z,91.90
2022-12-01T11:40:00.788Z,96.09
2022-12-01T11:41:00.683Z,94.69
2022-12-01T11:42:00.604Z,90.30
2022-12-01T11:43:00.530Z,92.59
2022-12-01T11:44:01.964Z,98.00
2022-12-01T11:45:00.365Z,97.09
2022-12-01T11:46:00.361Z,96.59
2022-12-01T11:47:21.767Z,98.69
2022-12-01T11:48:01.135Z,102.90
2022-12-01T11:49:00.039Z,95.19
2022-12-01T11:49:59.959Z,95.69
2022-12-01T11:50:59.870Z,102.30
2022-12-01T11:51:59.788Z,103.69
2022-12-01T11:52:59.705Z,104.80
2022-12-01T11:53:59.623Z,110.59
2022-12-01T11:54:59.540Z,102.69
2022-12-01T11:55:59.483Z,107.59
2022-12-01T11:57:31.938Z,98.40
2022-12-01T11:58:00.296Z,107.80
2022-12-01T11:58:59.196Z,104.59
2022-12-01T11:59:59.121Z,99.19
2022-12-01T12:00:59.037Z,102.69
2022-12-01T12:01:59.021Z,99.80
2022-12-01T12:02:58.943Z,102.00
2022-12-01T12:03:58.800Z,103.80
2022-12-01T12:04:58.719Z,105.00
2022-12-01T12:06:17.866Z,92.59
2022-12-01T12:06:59.596Z,104.90
2022-12-01T12:07:58.510Z,102.50
2022-12-01T12:08:58.443Z,104.40
2022-12-01T12:09:58.322Z,96.50
2022-12-01T12:10:58.336Z,100.50
2022-12-01T12:11:58.183Z,103.00
2022-12-01T12:12:58.067Z,100.40
2022-12-01T12:13:57.990Z,97.19
2022-12-01T12:14:57.910Z,98.50
2022-12-01T12:15:57.833Z,98.50
2022-12-01T12:16:57.752Z,93.80
2022-12-01T12:17:57.738Z,92.69
2022-12-01T12:18:57.593Z,85.09
2022-12-01T12:20:07.672Z,86.09
2022-12-01T12:20:58.446Z,89.50
2022-12-01T12:21:57.360Z,93.90
2022-12-01T12:22:57.280Z,82.80
2022-12-01T12:23:57.209Z,89.50
2022-12-01T12:24:57.133Z,92.69
2022-12-01T12:25:57.047Z,82.40
2022-12-01T12:26:56.967Z,79.30
2022-12-01T12:27:56.917Z,91.00
2022-12-01T12:28:56.806Z,93.80
2022-12-01T12:29:56.726Z,91.30
2022-12-01T12:30:56.705Z,86.30
2022-12-01T12:31:56.571Z,89.50
2022-12-01T12:32:56.491Z,87.50
2022-12-01T12:33:56.411Z,92.69
2022-12-01T12:34:56.333Z,89.19
2022-12-01T12:35:56.253Z,88.30
2022-12-01T12:36:56.172Z,92.59
2022-12-01T12:37:56.093Z,92.00
2022-12-01T12:38:56.030Z,86.00